Nieuw Amsterdam — PBWQ — position and weather

sailwx.info

Track history (hours):
 
Tides and Currents Weather Stations Pressure Air Temp Water Temp Dewpoint Dewpoint Depression Visibility Wind Speed Wind Dir Waves Ship Positions

Nieuw Amsterdam

Last reported at 2016-Aug-27 16:30 UTC. Time now 2016-Aug-27 16:46 UTC.
Position N 49°17' W 123°07'.

Length 285 m; draft 8 m.

Type: Ship. MMSI: 246648000.

Date/timePositionNaut miles runAvg speedWind from/ knotsBaromVisibWave heightAir tempDewpointWater temp
2016-Aug-27 16:30N 49°17' W 123°07'0 0.0
2016-Aug-27 15:32N 49°17' W 123°07'0 0.0
2016-Aug-27 14:31N 49°17' W 123°07'2 2.4
2016-Aug-27 13:33N 49°19' W 123°09'10 9.7
2016-Aug-27 12:33N 49°18' W 123°24'9 9.1
2016-Aug-27 11:33N 49°18' W 123°38'9 9.3
2016-Aug-27 10:33N 49°20' W 123°52'610.6
2016-Aug-27 10:00N 49°18' W 124°00'613.5 280 / 201006.1 5.4 0.519.314.318.5
2016-Aug-27 09:33N 49°23' W 124°05'9 9.2
2016-Aug-27 08:33N 49°25' W 124°19'9 9.4
2016-Aug-27 07:33N 49°31' W 124°31'9 9.5
2016-Aug-27 06:33N 49°38' W 124°40'19 9.4
2016-Aug-27 04:34N 49°51' W 125°00'9 9.4
2016-Aug-27 03:34N 49°58' W 125°10'1313.4
2016-Aug-27 02:33N 50°10' W 125°22'6014.9
2016-Aug-26 22:33N 50°33' W 126°47'1312.8
2016-Aug-26 21:34N 50°37' W 127°06'1616.1
2016-Aug-26 20:34N 50°48' W 127°25'1616.3
2016-Aug-26 19:33N 50°58' W 127°46'2515.8
2016-Aug-26 18:00N 51°12' W 128°18'5016.8 320 / 171014.8 5.4 1.018.112.317.0
2016-Aug-26 15:00N 52°00' W 128°42'4321.7 320 / 201015.0 5.4 1.013.111.216.0
2016-Aug-26 13:00N 52°42' W 129°00'17215.7 330 / 221015.0 2.2 0.513.111.216.0
2016-Aug-26 02:00N 55°12' W 131°24'21 2.1 300 / 191021.710.8 0.522.113.715.5
2016-Aug-25 16:00N 55°24' W 131°54'1615.7 320 / 15 10.8 0.5
2016-Aug-25 15:00N 55°36' W 132°12'1615.7 320 / 15 10.8 0.5
2016-Aug-25 14:00N 55°48' W 132°30'4711.7 320 / 15 10.8 0.5
2016-Aug-25 10:00N 56°12' W 133°42'5417.9 010 / 21031.1 5.4 0.511.911.314.6
2016-Aug-25 07:00N 56°18' W 135°18'9619.1 330 / 141033.5 2.2 1.513.513.018.0
2016-Aug-25 02:00N 57°42' W 136°42'4518.5 260 / 121033.4 0.5 1.515.114.517.7
2016-Aug-24 23:33N 58°21' W 136°01'1312.5
2016-Aug-24 22:33N 58°34' W 136°04'1716.7
2016-Aug-24 21:32N 58°47' W 136°24'14 3.1
2016-Aug-24 17:00N 58°54' W 136°48'1717.3 310 / 7 5.4
2016-Aug-24 16:00N 58°42' W 136°24'512.1 300 / 8 5.4
2016-Aug-24 15:33N 58°43' W 136°14'1514.7
2016-Aug-24 14:33N 58°29' W 136°03'1111.4
2016-Aug-24 13:33N 58°19' W 135°53'1413.6
2016-Aug-24 12:33N 58°15' W 135°29'46 8.3
2016-Aug-24 07:00N 59°00' W 135°12'24 2.7 160 / 111030.210.8 15.214.217.1
2016-Aug-23 22:00N 59°24' W 135°18'78 3.3 200 / 261020.010.8 17.212.116.1
2016-Aug-22 22:00N 58°12' W 134°18'24214.2 130 / 171014.010.8 15.3 9.914.6
2016-Aug-22 05:00N 54°24' W 131°54'23918.4 280 / 301013.710.8 2.514.412.819.5
2016-Aug-21 16:00N 51°06' W 128°12'1225.7 290 / 18 0.5
2016-Aug-21 15:32N 51°02' W 127°55'2222.0
2016-Aug-21 14:33N 50°50' W 127°26'2319.7
2016-Aug-21 13:23N 50°41' W 126°53'4615.3
2016-Aug-21 10:23N 50°23' W 125°47'1416.4
2016-Aug-21 09:33N 50°20' W 125°26'1514.7
2016-Aug-21 08:33N 50°06' W 125°18'1212.3
2016-Aug-21 07:33N 49°56' W 125°07'1933.4
2016-Aug-21 07:00N 49°42' W 124°48'715.5 340 / 271008.710.8 1.519.012.318.0
2016-Aug-21 06:33N 49°48' W 124°54'1212.3
2016-Aug-21 05:33N 49°39' W 124°40'1211.9
2016-Aug-21 04:33N 49°30' W 124°29'1211.9
2016-Aug-21 03:33N 49°24' W 124°12'1324.0
2016-Aug-21 03:00N 49°18' W 123°54'4 9.0 290 / 221007.710.8 23.013.718.0
2016-Aug-21 02:33N 49°22' W 123°54'1212.2
2016-Aug-21 01:34N 49°20' W 123°36'1212.3
2016-Aug-21 00:33N 49°19' W 123°17'7 6.7
2016-Aug-20 23:33N 49°17' W 123°07'0 0.0
2016-Aug-20 22:33N 49°17' W 123°07'0 0.0
2016-Aug-20 21:32N 49°17' W 123°07'0 0.0
2016-Aug-20 20:31N 49°17' W 123°07'0 0.0
2016-Aug-20 19:31N 49°17' W 123°07'0 0.0
2016-Aug-20 18:32N 49°17' W 123°07'0 0.0
2016-Aug-20 17:32N 49°17' W 123°07'0 0.0
2016-Aug-20 16:32N 49°17' W 123°07'0 0.0
2016-Aug-20 15:33N 49°17' W 123°07'0 0.0
2016-Aug-20 14:33N 49°17' W 123°07'2 2.2
2016-Aug-20 13:34N 49°19' W 123°09'9 9.4
2016-Aug-20 12:34N 49°18' W 123°23'9 9.2
2016-Aug-20 11:34N 49°19' W 123°38'8 8.3
2016-Aug-20 10:34N 49°20' W 123°50'8 8.0
2016-Aug-20 09:34N 49°22' W 124°02'9 8.6
2016-Aug-20 08:33N 49°25' W 124°14'9 8.6
2016-Aug-20 07:34N 49°28' W 124°27'9 8.6
2016-Aug-20 06:34N 49°34' W 124°36'9 8.7
2016-Aug-20 05:34N 49°40' W 124°45'9 8.8
2016-Aug-20 04:33N 49°47' W 124°55'9 8.6
2016-Aug-20 03:33N 49°53' W 125°04'1010.2
2016-Aug-20 02:33N 50°01' W 125°13'1313.1
2016-Aug-20 01:34N 50°13' W 125°23'4615.2
2016-Aug-19 22:33N 50°30' W 126°29'1514.3
2016-Aug-19 21:30N 50°39' W 126°48'815.8
2016-Aug-19 21:00N 50°42' W 127°00'819.5 300 / 201015.0 0.3 17.813.915.5
2016-Aug-19 20:33N 50°45' W 127°12'1717.0
2016-Aug-19 19:33N 50°53' W 127°36'1716.7
2016-Aug-19 18:33N 51°03' W 127°57'4617.8
2016-Aug-19 16:00N 51°42' W 128°36'1818.4 310 / 24 1.5
2016-Aug-19 15:00N 52°00' W 128°42'45711.6 330 / 25 0.3 1.5
2016-Aug-17 23:33N 58°22' W 136°00'1413.6
2016-Aug-17 22:33N 58°36' W 136°04'1717.2
2016-Aug-17 21:33N 58°48' W 136°27'  
Track history (hours):
 
Tides and Currents Weather Stations Pressure Air Temp Water Temp Dewpoint Dewpoint Depression Visibility Wind Speed Wind Dir Waves Ship Positions

Nieuw Amsterdam

Last reported at 2016-Aug-27 16:30 UTC. Time now 2016-Aug-27 16:46 UTC.
Position N 49°17' W 123°07'.

Length 285 m; draft 8 m.

Type: Ship. MMSI: 246648000.

Date/timePositionNaut miles runAvg speedWind from/ knotsBaromVisibWave heightAir tempDewpointWater temp
2016-Aug-27 16:30N 49°17' W 123°07'0 0.0
2016-Aug-27 15:32N 49°17' W 123°07'0 0.0
2016-Aug-27 14:31N 49°17' W 123°07'2 2.4
2016-Aug-27 13:33N 49°19' W 123°09'10 9.7
2016-Aug-27 12:33N 49°18' W 123°24'9 9.1
2016-Aug-27 11:33N 49°18' W 123°38'9 9.3
2016-Aug-27 10:33N 49°20' W 123°52'610.6
2016-Aug-27 10:00N 49°18' W 124°00'613.5 280 / 201006.1 5.4 0.519.314.318.5
2016-Aug-27 09:33N 49°23' W 124°05'9 9.2
2016-Aug-27 08:33N 49°25' W 124°19'9 9.4
2016-Aug-27 07:33N 49°31' W 124°31'9 9.5
2016-Aug-27 06:33N 49°38' W 124°40'19 9.4
2016-Aug-27 04:34N 49°51' W 125°00'9 9.4
2016-Aug-27 03:34N 49°58' W 125°10'1313.4
2016-Aug-27 02:33N 50°10' W 125°22'6014.9
2016-Aug-26 22:33N 50°33' W 126°47'1312.8
2016-Aug-26 21:34N 50°37' W 127°06'1616.1
2016-Aug-26 20:34N 50°48' W 127°25'1616.3
2016-Aug-26 19:33N 50°58' W 127°46'2515.8
2016-Aug-26 18:00N 51°12' W 128°18'5016.8 320 / 171014.8 5.4 1.018.112.317.0
2016-Aug-26 15:00N 52°00' W 128°42'4321.7 320 / 201015.0 5.4 1.013.111.216.0
2016-Aug-26 13:00N 52°42' W 129°00'17215.7 330 / 221015.0 2.2 0.513.111.216.0
2016-Aug-26 02:00N 55°12' W 131°24'21 2.1 300 / 191021.710.8 0.522.113.715.5
2016-Aug-25 16:00N 55°24' W 131°54'1615.7 320 / 15 10.8 0.5
2016-Aug-25 15:00N 55°36' W 132°12'1615.7 320 / 15 10.8 0.5
2016-Aug-25 14:00N 55°48' W 132°30'4711.7 320 / 15 10.8 0.5
2016-Aug-25 10:00N 56°12' W 133°42'5417.9 010 / 21031.1 5.4 0.511.911.314.6
2016-Aug-25 07:00N 56°18' W 135°18'9619.1 330 / 141033.5 2.2 1.513.513.018.0
2016-Aug-25 02:00N 57°42' W 136°42'4518.5 260 / 121033.4 0.5 1.515.114.517.7
2016-Aug-24 23:33N 58°21' W 136°01'1312.5
2016-Aug-24 22:33N 58°34' W 136°04'1716.7
2016-Aug-24 21:32N 58°47' W 136°24'14 3.1
2016-Aug-24 17:00N 58°54' W 136°48'1717.3 310 / 7 5.4
2016-Aug-24 16:00N 58°42' W 136°24'512.1 300 / 8 5.4
2016-Aug-24 15:33N 58°43' W 136°14'1514.7
2016-Aug-24 14:33N 58°29' W 136°03'1111.4
2016-Aug-24 13:33N 58°19' W 135°53'1413.6
2016-Aug-24 12:33N 58°15' W 135°29'46 8.3
2016-Aug-24 07:00N 59°00' W 135°12'24 2.7 160 / 111030.210.8 15.214.217.1
2016-Aug-23 22:00N 59°24' W 135°18'78 3.3 200 / 261020.010.8 17.212.116.1
2016-Aug-22 22:00N 58°12' W 134°18'24214.2 130 / 171014.010.8 15.3 9.914.6
2016-Aug-22 05:00N 54°24' W 131°54'23918.4 280 / 301013.710.8 2.514.412.819.5
2016-Aug-21 16:00N 51°06' W 128°12'1225.7 290 / 18 0.5
2016-Aug-21 15:32N 51°02' W 127°55'2222.0
2016-Aug-21 14:33N 50°50' W 127°26'2319.7
2016-Aug-21 13:23N 50°41' W 126°53'4615.3
2016-Aug-21 10:23N 50°23' W 125°47'1416.4
2016-Aug-21 09:33N 50°20' W 125°26'1514.7
2016-Aug-21 08:33N 50°06' W 125°18'1212.3
2016-Aug-21 07:33N 49°56' W 125°07'1933.4
2016-Aug-21 07:00N 49°42' W 124°48'715.5 340 / 271008.710.8 1.519.012.318.0
2016-Aug-21 06:33N 49°48' W 124°54'1212.3
2016-Aug-21 05:33N 49°39' W 124°40'1211.9
2016-Aug-21 04:33N 49°30' W 124°29'1211.9
2016-Aug-21 03:33N 49°24' W 124°12'1324.0
2016-Aug-21 03:00N 49°18' W 123°54'4 9.0 290 / 221007.710.8 23.013.718.0
2016-Aug-21 02:33N 49°22' W 123°54'1212.2
2016-Aug-21 01:34N 49°20' W 123°36'1212.3
2016-Aug-21 00:33N 49°19' W 123°17'7 6.7
2016-Aug-20 23:33N 49°17' W 123°07'0 0.0
2016-Aug-20 22:33N 49°17' W 123°07'0 0.0
2016-Aug-20 21:32N 49°17' W 123°07'0 0.0
2016-Aug-20 20:31N 49°17' W 123°07'0 0.0
2016-Aug-20 19:31N 49°17' W 123°07'0 0.0
2016-Aug-20 18:32N 49°17' W 123°07'0 0.0
2016-Aug-20 17:32N 49°17' W 123°07'0 0.0
2016-Aug-20 16:32N 49°17' W 123°07'0 0.0
2016-Aug-20 15:33N 49°17' W 123°07'0 0.0
2016-Aug-20 14:33N 49°17' W 123°07'2 2.2
2016-Aug-20 13:34N 49°19' W 123°09'9 9.4
2016-Aug-20 12:34N 49°18' W 123°23'9 9.2
2016-Aug-20 11:34N 49°19' W 123°38'8 8.3
2016-Aug-20 10:34N 49°20' W 123°50'8 8.0
2016-Aug-20 09:34N 49°22' W 124°02'9 8.6
2016-Aug-20 08:33N 49°25' W 124°14'9 8.6
2016-Aug-20 07:34N 49°28' W 124°27'9 8.6
2016-Aug-20 06:34N 49°34' W 124°36'9 8.7
2016-Aug-20 05:34N 49°40' W 124°45'9 8.8
2016-Aug-20 04:33N 49°47' W 124°55'9 8.6
2016-Aug-20 03:33N 49°53' W 125°04'1010.2
2016-Aug-20 02:33N 50°01' W 125°13'1313.1
2016-Aug-20 01:34N 50°13' W 125°23'4615.2
2016-Aug-19 22:33N 50°30' W 126°29'1514.3
2016-Aug-19 21:30N 50°39' W 126°48'815.8
2016-Aug-19 21:00N 50°42' W 127°00'819.5 300 / 201015.0 0.3 17.813.915.5
2016-Aug-19 20:33N 50°45' W 127°12'1717.0
2016-Aug-19 19:33N 50°53' W 127°36'1716.7
2016-Aug-19 18:33N 51°03' W 127°57'4617.8
2016-Aug-19 16:00N 51°42' W 128°36'1818.4 310 / 24 1.5
2016-Aug-19 15:00N 52°00' W 128°42'45711.6 330 / 25 0.3 1.5
2016-Aug-17 23:33N 58°22' W 136°00'1413.6
2016-Aug-17 22:33N 58°36' W 136°04'1717.2
2016-Aug-17 21:33N 58°48' W 136°27'  

Dump ship's entire track history